Visit the IPS Meteostar Home Page IPSM Miami International Airport FORECAST

Miami, Florida

76

78

78

78

80

80

82

80

72
72
70
70
70
70
70

7 miles away at Miami International Airport 18:53 GMT

Weather:

Mostly Cloudy

Wind:

ESE 14 mph

Temperature:

76 ° F

Pressure:

30.19

Dew Point:

67 ° F

Relative Humidity:

73

Feels Like:

76 ° F

Visibility:

10 miles


Aviation Observations:

KMIA 171853Z 12012KT 10SM BKN030 BKN250 24/19 A3017 RMK AO2 SLP217 T02440194 =

National Weather Service Forecast:
Coastal Miami Dade County
238 AM EST SUN DEC 17 2017

TODAY

Partly sunny. Highs in the upper 70s. East winds 10 to 15 mph.

TONIGHT

Mostly cloudy in the evening...then becoming partly cloudy. Lows in the lower 70s. East winds around 10 mph.

MONDAY

Mostly sunny. Highs in the upper 70s. East winds 10 to 15 mph.

MONDAY NIGHT

Partly cloudy. Lows around 70. East winds 5 to 10 mph.

TUESDAY

Sunny. Highs in the upper 70s. East winds 5 to 10 mph.

TUESDAY NIGHT THROUGH THURSDAY

Partly cloudy. Lows around 70. highs around 80.

THURSDAY NIGHT THROUGH FRIDAY NIGHT

Mostly clear. Lows around 70. Highs in the lower 80s.

SATURDAY

Mostly sunny. Highs around 80.


Visit the IPS Meteostar Home Page